sensor_id;sensor_type;location;lat;lon;timestamp;pressure;altitude;pressure_sealevel;temperature;humidity
14594;BME280;7383;52.354;9.756;2023-02-02T03:43:24;-12567.03;;;6.40;100.00
14594;BME280;7383;52.354;9.756;2023-02-02T03:45:57;-12565.97;;;6.34;100.00
14594;BME280;7383;52.354;9.756;2023-02-02T03:48:39;-12565.72;;;6.32;100.00
14594;BME280;7383;52.354;9.756;2023-02-02T03:51:13;-12565.63;;;6.32;100.00
14594;BME280;7383;52.354;9.756;2023-02-02T04:17:29;-12565.53;;;6.31;100.00
14594;BME280;7383;52.354;9.756;2023-02-02T05:35:05;-12561.41;;;6.08;100.00
14594;BME280;7383;52.354;9.756;2023-02-02T05:37:41;-12561.06;;;6.06;100.00
14594;BME280;7383;52.354;9.756;2023-02-02T05:40:12;-12561.22;;;6.07;100.00
14594;BME280;7383;52.354;9.756;2023-02-02T05:43:12;-12561.56;;;6.09;100.00
14594;BME280;7383;52.354;9.756;2023-02-02T05:52:54;-12561.75;;;6.10;100.00
14594;BME280;7383;52.354;9.756;2023-02-02T05:55:20;-12562.19;;;6.12;100.00
14594;BME280;7383;52.354;9.756;2023-02-02T05:57:47;-12561.94;;;6.11;100.00
14594;BME280;7383;52.354;9.756;2023-02-02T06:00:14;-12562.38;;;6.13;100.00
14594;BME280;7383;52.354;9.756;2023-02-02T06:02:41;-12562.19;;;6.12;100.00
14594;BME280;7383;52.354;9.756;2023-02-02T06:05:08;-12563.00;;;6.17;100.00
14594;BME280;7383;52.354;9.756;2023-02-02T06:07:35;-12563.06;;;6.17;100.00
14594;BME280;7383;52.354;9.756;2023-02-02T06:10:03;-12563.69;;;6.21;100.00
14594;BME280;7383;52.354;9.756;2023-02-02T06:12:30;-12563.59;;;6.20;100.00
14594;BME280;7383;52.354;9.756;2023-02-02T06:14:57;-12564.13;;;6.23;100.00
14594;BME280;7383;52.354;9.756;2023-02-02T06:17:23;-12563.34;;;6.19;100.00
14594;BME280;7383;52.354;9.756;2023-02-02T06:19:50;-12564.47;;;6.25;100.00
14594;BME280;7383;52.354;9.756;2023-02-02T06:22:16;-12564.13;;;6.23;100.00
14594;BME280;7383;52.354;9.756;2023-02-02T06:24:42;-12564.91;;;6.28;100.00
14594;BME280;7383;52.354;9.756;2023-02-02T06:27:10;-12564.56;;;6.26;100.00
14594;BME280;7383;52.354;9.756;2023-02-02T06:29:37;-12564.84;;;6.27;100.00
14594;BME280;7383;52.354;9.756;2023-02-02T06:32:04;-12565.44;;;6.31;100.00
14594;BME280;7383;52.354;9.756;2023-02-02T06:34:30;-12566.94;;;6.39;100.00
14594;BME280;7383;52.354;9.756;2023-02-02T06:36:57;-12568.69;;;6.50;100.00
14594;BME280;7383;52.354;9.756;2023-02-02T06:39:23;-12570.03;;;6.57;100.00
14594;BME280;7383;52.354;9.756;2023-02-02T06:41:50;-12570.81;;;6.62;100.00
14594;BME280;7383;52.354;9.756;2023-02-02T06:44:18;-12570.81;;;6.62;100.00
14594;BME280;7383;52.354;9.756;2023-02-02T06:46:47;-12570.38;;;6.59;100.00
14594;BME280;7383;52.354;9.756;2023-02-02T06:49:14;-12570.09;;;6.58;100.00
14594;BME280;7383;52.354;9.756;2023-02-02T06:51:40;-12568.44;;;6.48;100.00
14594;BME280;7383;52.354;9.756;2023-02-02T06:54:07;-12568.19;;;6.47;100.00
14594;BME280;7383;52.354;9.756;2023-02-02T06:56:33;-12568.25;;;6.47;100.00
14594;BME280;7383;52.354;9.756;2023-02-02T06:59:00;-12568.19;;;6.47;100.00
14594;BME280;7383;52.354;9.756;2023-02-02T07:01:28;-12568.09;;;6.46;100.00
14594;BME280;7383;52.354;9.756;2023-02-02T07:03:54;-12568.00;;;6.46;100.00
14594;BME280;7383;52.354;9.756;2023-02-02T07:06:22;-12568.19;;;6.47;100.00
14594;BME280;7383;52.354;9.756;2023-02-02T07:08:52;-12568.19;;;6.47;100.00
14594;BME280;7383;52.354;9.756;2023-02-02T07:11:18;-12568.69;;;6.50;100.00
14594;BME280;7383;52.354;9.756;2023-02-02T07:13:45;-12568.69;;;6.50;100.00
14594;BME280;7383;52.354;9.756;2023-02-02T07:16:13;-12568.53;;;6.49;100.00
14594;BME280;7383;52.354;9.756;2023-02-02T07:18:41;-12568.69;;;6.50;100.00
14594;BME280;7383;52.354;9.756;2023-02-02T07:21:15;-12569.41;;;6.54;100.00
14594;BME280;7383;52.354;9.756;2023-02-02T07:23:42;-12569.22;;;6.53;100.00
14594;BME280;7383;52.354;9.756;2023-02-02T07:26:09;-12569.22;;;6.53;100.00
14594;BME280;7383;52.354;9.756;2023-02-02T07:28:37;-12569.84;;;6.56;100.00
14594;BME280;7383;52.354;9.756;2023-02-02T07:31:11;-12570.09;;;6.58;100.00
14594;BME280;7383;52.354;9.756;2023-02-02T07:33:41;-12570.72;;;6.61;100.00
14594;BME280;7383;52.354;9.756;2023-02-02T07:36:07;-12571.16;;;6.64;100.00
14594;BME280;7383;52.354;9.756;2023-02-02T07:38:34;-12571.59;;;6.66;100.00
14594;BME280;7383;52.354;9.756;2023-02-02T07:41:01;-12572.13;;;6.69;100.00
14594;BME280;7383;52.354;9.756;2023-02-02T07:43:27;-12572.91;;;6.74;100.00
14594;BME280;7383;52.354;9.756;2023-02-02T07:45:58;-12573.09;;;6.75;100.00
14594;BME280;7383;52.354;9.756;2023-02-02T07:48:27;-12572.13;;;6.69;100.00
14594;BME280;7383;52.354;9.756;2023-02-02T07:50:57;-12572.13;;;6.69;100.00
14594;BME280;7383;52.354;9.756;2023-02-02T07:53:24;-12572.31;;;6.70;100.00
14594;BME280;7383;52.354;9.756;2023-02-02T07:55:50;-12573.00;;;6.74;100.00
14594;BME280;7383;52.354;9.756;2023-02-02T07:58:17;-12573.72;;;6.78;100.00
14594;BME280;7383;52.354;9.756;2023-02-02T08:00:43;-12574.06;;;6.80;100.00
14594;BME280;7383;52.354;9.756;2023-02-02T08:03:10;-12574.59;;;6.83;100.00
14594;BME280;7383;52.354;9.756;2023-02-02T08:05:36;-12575.03;;;6.86;100.00
14594;BME280;7383;52.354;9.756;2023-02-02T08:08:05;-12575.38;;;6.88;100.00
14594;BME280;7383;52.354;9.756;2023-02-02T08:10:31;-12575.56;;;6.89;100.00
14594;BME280;7383;52.354;9.756;2023-02-02T08:12:58;-12576.34;;;6.93;100.00
14594;BME280;7383;52.354;9.756;2023-02-02T08:15:24;-12576.16;;;6.92;100.00
14594;BME280;7383;52.354;9.756;2023-02-02T08:17:51;-12576.25;;;6.93;100.00
14594;BME280;7383;52.354;9.756;2023-02-02T08:20:17;-12576.44;;;6.94;100.00
14594;BME280;7383;52.354;9.756;2023-02-02T08:22:44;-12577.06;;;6.98;100.00
14594;BME280;7383;52.354;9.756;2023-02-02T08:25:12;-12577.56;;;7.01;100.00
14594;BME280;7383;52.354;9.756;2023-02-02T08:27:39;-12578.44;;;7.06;100.00
14594;BME280;7383;52.354;9.756;2023-02-02T08:30:06;-12578.97;;;7.09;100.00
14594;BME280;7383;52.354;9.756;2023-02-02T08:32:32;-12579.06;;;7.09;100.00
14594;BME280;7383;52.354;9.756;2023-02-02T08:34:59;-12579.25;;;7.10;100.00
14594;BME280;7383;52.354;9.756;2023-02-02T08:37:25;-12579.84;;;7.14;100.00
14594;BME280;7383;52.354;9.756;2023-02-02T08:39:52;-12581.09;;;7.21;100.00
14594;BME280;7383;52.354;9.756;2023-02-02T08:52:51;-12582.41;;;7.28;100.00
14594;BME280;7383;52.354;9.756;2023-02-02T08:55:18;-12582.66;;;7.30;100.00
14594;BME280;7383;52.354;9.756;2023-02-02T09:32:01;-12586.63;;;7.53;100.00
14594;BME280;7383;52.354;9.756;2023-02-02T09:34:54;-12587.16;;;7.56;100.00
14594;BME280;7383;52.354;9.756;2023-02-02T09:57:50;-12595.03;;;8.01;100.00
14594;BME280;7383;52.354;9.756;2023-02-02T10:00:26;-12596.00;;;8.07;100.00
14594;BME280;7383;52.354;9.756;2023-02-02T10:02:59;-12596.63;;;8.10;100.00
14594;BME280;7383;52.354;9.756;2023-02-02T10:05:41;-12596.44;;;8.09;100.00
14594;BME280;7383;52.354;9.756;2023-02-02T10:08:12;-12595.38;;;8.03;100.00
14594;BME280;7383;52.354;9.756;2023-02-02T10:21:07;-12599.16;;;8.25;100.00
14594;BME280;7383;52.354;9.756;2023-02-02T10:23:38;-12599.69;;;8.28;100.00
14594;BME280;7383;52.354;9.756;2023-02-02T10:26:13;-12599.94;;;8.29;100.00
14594;BME280;7383;52.354;9.756;2023-02-02T10:28:47;-12600.13;;;8.30;100.00
14594;BME280;7383;52.354;9.756;2023-02-02T10:31:28;-12601.00;;;8.35;100.00
14594;BME280;7383;52.354;9.756;2023-02-02T10:34:13;-12601.19;;;8.36;100.00
14594;BME280;7383;52.354;9.756;2023-02-02T10:37:04;-12600.75;;;8.34;100.00
14594;BME280;7383;52.354;9.756;2023-02-02T10:39:45;-12601.69;;;8.39;100.00
14594;BME280;7383;52.354;9.756;2023-02-02T10:42:24;-12603.19;;;8.48;100.00
14594;BME280;7383;52.354;9.756;2023-02-02T10:44:55;-12603.81;;;8.52;100.00
14594;BME280;7383;52.354;9.756;2023-02-02T10:47:26;-12603.97;;;8.53;100.00
14594;BME280;7383;52.354;9.756;2023-02-02T10:50:01;-12604.34;;;8.55;100.00
14594;BME280;7383;52.354;9.756;2023-02-02T10:52:33;-12606.00;;;8.64;100.00
14594;BME280;7383;52.354;9.756;2023-02-02T10:55:04;-12606.25;;;8.66;100.00
14594;BME280;7383;52.354;9.756;2023-02-02T10:57:41;-12605.75;;;8.63;100.00
14594;BME280;7383;52.354;9.756;2023-02-02T11:00:17;-12605.66;;;8.62;100.00
14594;BME280;7383;52.354;9.756;2023-02-02T11:02:46;-12605.66;;;8.62;100.00
14594;BME280;7383;52.354;9.756;2023-02-02T11:05:18;-12605.56;;;8.62;100.00
14594;BME280;7383;52.354;9.756;2023-02-02T11:08:12;-12604.50;;;8.56;100.00
14594;BME280;7383;52.354;9.756;2023-02-02T11:10:38;-12603.47;;;8.50;100.00
14594;BME280;7383;52.354;9.756;2023-02-02T11:13:06;-12603.28;;;8.49;100.00
14594;BME280;7383;52.354;9.756;2023-02-02T11:15:33;-12604.16;;;8.54;100.00
14594;BME280;7383;52.354;9.756;2023-02-02T11:18:12;-12604.50;;;8.56;100.00
14594;BME280;7383;52.354;9.756;2023-02-02T11:20:40;-12604.41;;;8.55;100.00
14594;BME280;7383;52.354;9.756;2023-02-02T11:23:17;-12605.47;;;8.61;100.00
14594;BME280;7383;52.354;9.756;2023-02-02T11:25:44;-12606.09;;;8.65;100.00
14594;BME280;7383;52.354;9.756;2023-02-02T11:28:11;-12607.22;;;8.71;100.00
14594;BME280;7383;52.354;9.756;2023-02-02T11:30:45;-12607.84;;;8.75;100.00
14594;BME280;7383;52.354;9.756;2023-02-02T11:33:24;-12607.22;;;8.71;100.00
14594;BME280;7383;52.354;9.756;2023-02-02T11:35:53;-12607.13;;;8.71;100.00
14594;BME280;7383;52.354;9.756;2023-02-02T11:38:22;-12607.56;;;8.73;100.00
14594;BME280;7383;52.354;9.756;2023-02-02T11:40:54;-12608.44;;;8.78;100.00
14594;BME280;7383;52.354;9.756;2023-02-02T11:43:25;-12609.41;;;8.84;100.00
14594;BME280;7383;52.354;9.756;2023-02-02T11:45:55;-12609.59;;;8.85;100.00
14594;BME280;7383;52.354;9.756;2023-02-02T11:48:27;-12610.63;;;8.91;100.00
14594;BME280;7383;52.354;9.756;2023-02-02T11:50:57;-12611.94;;;8.99;100.00
14594;BME280;7383;52.354;9.756;2023-02-02T11:53:27;-12613.00;;;9.05;100.00
14594;BME280;7383;52.354;9.756;2023-02-02T11:55:55;-12614.66;;;9.14;100.00
14594;BME280;7383;52.354;9.756;2023-02-02T11:58:24;-12619.22;;;9.40;100.00
14594;BME280;7383;52.354;9.756;2023-02-02T12:00:55;-12622.53;;;9.60;100.00
14594;BME280;7383;52.354;9.756;2023-02-02T12:03:24;-12623.59;;;9.66;100.00
14594;BME280;7383;52.354;9.756;2023-02-02T12:05:51;-12625.09;;;9.74;100.00
14594;BME280;7383;52.354;9.756;2023-02-02T12:08:18;-12625.97;;;9.79;100.00
14594;BME280;7383;52.354;9.756;2023-02-02T12:10:52;-12624.47;;;9.71;100.00
14594;BME280;7383;52.354;9.756;2023-02-02T12:13:28;-12623.69;;;9.66;100.00
14594;BME280;7383;52.354;9.756;2023-02-02T12:16:04;-12622.19;;;9.58;100.00
14594;BME280;7383;52.354;9.756;2023-02-02T12:18:40;-12622.03;;;9.57;100.00
14594;BME280;7383;52.354;9.756;2023-02-02T12:21:16;-12621.22;;;9.52;100.00
14594;BME280;7383;52.354;9.756;2023-02-02T12:23:51;-12621.06;;;9.51;100.00
14594;BME280;7383;52.354;9.756;2023-02-02T12:26:25;-12621.22;;;9.52;100.00
14594;BME280;7383;52.354;9.756;2023-02-02T12:29:13;-12620.28;;;9.47;100.00
14594;BME280;7383;52.354;9.756;2023-02-02T12:31:54;-12617.66;;;9.31;100.00
14594;BME280;7383;52.354;9.756;2023-02-02T12:34:31;-12615.81;;;9.21;100.00
14594;BME280;7383;52.354;9.756;2023-02-02T12:37:09;-12615.09;;;9.17;100.00
14594;BME280;7383;52.354;9.756;2023-02-02T12:39:48;-12615.19;;;9.17;100.00
14594;BME280;7383;52.354;9.756;2023-02-02T12:42:31;-12615.28;;;9.18;100.00
14594;BME280;7383;52.354;9.756;2023-02-02T12:45:16;-12614.66;;;9.14;100.00
14594;BME280;7383;52.354;9.756;2023-02-02T12:47:55;-12614.59;;;9.14;100.00
14594;BME280;7383;52.354;9.756;2023-02-02T12:50:29;-12615.09;;;9.17;100.00
14594;BME280;7383;52.354;9.756;2023-02-02T12:53:11;-12617.03;;;9.28;100.00
14594;BME280;7383;52.354;9.756;2023-02-02T12:55:45;-12615.38;;;9.18;100.00
14594;BME280;7383;52.354;9.756;2023-02-02T12:58:22;-12617.22;;;9.29;100.00
14594;BME280;7383;52.354;9.756;2023-02-02T13:01:09;-12619.47;;;9.42;100.00
14594;BME280;7383;52.354;9.756;2023-02-02T13:04:03;-12621.16;;;9.52;100.00
14594;BME280;7383;52.354;9.756;2023-02-02T13:06:53;-12622.38;;;9.59;100.00
14594;BME280;7383;52.354;9.756;2023-02-02T13:09:29;-12623.41;;;9.65;100.00
14594;BME280;7383;52.354;9.756;2023-02-02T13:12:01;-12623.34;;;9.64;100.00
14594;BME280;7383;52.354;9.756;2023-02-02T13:14:34;-12622.28;;;9.58;100.00
14594;BME280;7383;52.354;9.756;2023-02-02T13:17:07;-12620.78;;;9.50;100.00
14594;BME280;7383;52.354;9.756;2023-02-02T13:19:37;-12619.41;;;9.42;100.00
14594;BME280;7383;52.354;9.756;2023-02-02T13:22:09;-12619.22;;;9.40;100.00
14594;BME280;7383;52.354;9.756;2023-02-02T13:24:41;-12619.56;;;9.43;100.00
14594;BME280;7383;52.354;9.756;2023-02-02T13:27:13;-12620.97;;;9.51;100.00
14594;BME280;7383;52.354;9.756;2023-02-02T13:29:44;-12622.28;;;9.58;100.00
14594;BME280;7383;52.354;9.756;2023-02-02T13:32:18;-12623.69;;;9.66;100.00
14594;BME280;7383;52.354;9.756;2023-02-02T13:34:49;-12625.44;;;9.76;100.00
14594;BME280;7383;52.354;9.756;2023-02-02T13:37:24;-12627.44;;;9.88;100.00
14594;BME280;7383;52.354;9.756;2023-02-02T13:39:55;-12629.28;;;9.99;100.00
14594;BME280;7383;52.354;9.756;2023-02-02T13:42:31;-12631.03;;;10.09;100.00
14594;BME280;7383;52.354;9.756;2023-02-02T13:45:08;-12632.06;;;10.15;100.00
14594;BME280;7383;52.354;9.756;2023-02-02T13:47:45;-12634.63;;;10.29;100.00
14594;BME280;7383;52.354;9.756;2023-02-02T13:50:15;-12637.06;;;10.44;100.00
14594;BME280;7383;52.354;9.756;2023-02-02T13:53:03;-12637.66;;;10.47;100.00
14594;BME280;7383;52.354;9.756;2023-02-02T13:55:45;-12636.88;;;10.43;100.00
14594;BME280;7383;52.354;9.756;2023-02-02T13:58:36;-12637.22;;;10.45;100.00
14594;BME280;7383;52.354;9.756;2023-02-02T14:01:10;-12638.91;;;10.54;100.00
14594;BME280;7383;52.354;9.756;2023-02-02T14:03:39;-12640.56;;;10.64;100.00
14594;BME280;7383;52.354;9.756;2023-02-02T14:06:12;-12642.22;;;10.73;100.00
14594;BME280;7383;52.354;9.756;2023-02-02T14:08:45;-12642.03;;;10.72;100.00
14594;BME280;7383;52.354;9.756;2023-02-02T14:11:19;-12642.47;;;10.75;100.00
14594;BME280;7383;52.354;9.756;2023-02-02T14:13:50;-12643.44;;;10.80;100.00
14594;BME280;7383;52.354;9.756;2023-02-02T14:16:46;-12644.75;;;10.88;100.00
14594;BME280;7383;52.354;9.756;2023-02-02T14:19:14;-12645.97;;;10.95;100.00
14594;BME280;7383;52.354;9.756;2023-02-02T14:22:15;-12646.22;;;10.97;100.00
14594;BME280;7383;52.354;9.756;2023-02-02T14:24:44;-12642.31;;;10.74;100.00
14594;BME280;7383;52.354;9.756;2023-02-02T14:27:40;-12637.94;;;10.49;100.00
14594;BME280;7383;52.354;9.756;2023-02-02T14:30:26;-12636.19;;;10.38;100.00
14594;BME280;7383;52.354;9.756;2023-02-02T14:33:20;-12634.88;;;10.31;100.00
14594;BME280;7383;52.354;9.756;2023-02-02T14:35:59;-12633.31;;;10.22;100.00
14594;BME280;7383;52.354;9.756;2023-02-02T14:38:54;-12633.47;;;10.23;100.00
14594;BME280;7383;52.354;9.756;2023-02-02T14:41:38;-12633.66;;;10.24;100.00
14594;BME280;7383;52.354;9.756;2023-02-02T14:44:27;-12632.69;;;10.18;100.00
14594;BME280;7383;52.354;9.756;2023-02-02T14:46:54;-12631.81;;;10.13;100.00
14594;BME280;7383;52.354;9.756;2023-02-02T14:49:25;-12630.84;;;10.08;100.00
14594;BME280;7383;52.354;9.756;2023-02-02T14:51:56;-12629.19;;;9.98;100.00
14594;BME280;7383;52.354;9.756;2023-02-02T14:54:29;-12628.59;;;9.95;100.00
14594;BME280;7383;52.354;9.756;2023-02-02T14:56:59;-12626.03;;;9.80;100.00
14594;BME280;7383;52.354;9.756;2023-02-02T14:59:31;-12625.00;;;9.74;100.00
14594;BME280;7383;52.354;9.756;2023-02-02T15:02:11;-12624.47;;;9.71;100.00
14594;BME280;7383;52.354;9.756;2023-02-02T15:04:40;-12622.97;;;9.62;100.00
14594;BME280;7383;52.354;9.756;2023-02-02T15:07:36;-12622.03;;;9.57;100.00
14594;BME280;7383;52.354;9.756;2023-02-02T15:10:10;-12619.84;;;9.44;100.00
14594;BME280;7383;52.354;9.756;2023-02-02T15:12:40;-12618.09;;;9.34;100.00
14594;BME280;7383;52.354;9.756;2023-02-02T15:15:14;-12616.94;;;9.27;100.00
14594;BME280;7383;52.354;9.756;2023-02-02T15:18:04;-12616.06;;;9.22;100.00
14594;BME280;7383;52.354;9.756;2023-02-02T15:20:38;-12615.63;;;9.20;100.00
14594;BME280;7383;52.354;9.756;2023-02-02T15:23:19;-12615.72;;;9.20;100.00
14594;BME280;7383;52.354;9.756;2023-02-02T15:25:50;-12614.84;;;9.15;100.00
14594;BME280;7383;52.354;9.756;2023-02-02T15:28:24;-12614.66;;;9.14;100.00
14594;BME280;7383;52.354;9.756;2023-02-02T15:30:58;-12613.53;;;9.08;100.00
14594;BME280;7383;52.354;9.756;2023-02-02T15:33:28;-12613.00;;;9.05;100.00
14594;BME280;7383;52.354;9.756;2023-02-02T15:35:58;-12612.91;;;9.04;100.00
14594;BME280;7383;52.354;9.756;2023-02-02T15:38:32;-12611.94;;;8.99;100.00
14594;BME280;7383;52.354;9.756;2023-02-02T15:41:03;-12612.03;;;8.99;100.00
14594;BME280;7383;52.354;9.756;2023-02-02T15:43:30;-12611.25;;;8.95;100.00
14594;BME280;7383;52.354;9.756;2023-02-02T15:46:00;-12611.88;;;8.98;100.00
14594;BME280;7383;52.354;9.756;2023-02-02T15:48:29;-12611.16;;;8.94;100.00
14594;BME280;7383;52.354;9.756;2023-02-02T15:50:59;-12611.44;;;8.96;100.00
14594;BME280;7383;52.354;9.756;2023-02-02T15:53:32;-12611.16;;;8.94;100.00
14594;BME280;7383;52.354;9.756;2023-02-02T15:55:59;-12611.25;;;8.95;100.00
14594;BME280;7383;52.354;9.756;2023-02-02T15:58:29;-12611.16;;;8.94;100.00
14594;BME280;7383;52.354;9.756;2023-02-02T16:00:59;-12610.81;;;8.92;100.00
14594;BME280;7383;52.354;9.756;2023-02-02T16:03:35;-12609.69;;;8.85;100.00
14594;BME280;7383;52.354;9.756;2023-02-02T16:06:06;-12609.41;;;8.84;100.00
14594;BME280;7383;52.354;9.756;2023-02-02T16:08:35;-12608.88;;;8.81;100.00
14594;BME280;7383;52.354;9.756;2023-02-02T16:11:06;-12608.44;;;8.78;100.00
14594;BME280;7383;52.354;9.756;2023-02-02T16:13:34;-12608.09;;;8.76;100.00
14594;BME280;7383;52.354;9.756;2023-02-02T16:16:02;-12606.88;;;8.69;100.00
14594;BME280;7383;52.354;9.756;2023-02-02T16:18:31;-12607.22;;;8.71;100.00
14594;BME280;7383;52.354;9.756;2023-02-02T16:20:59;-12606.88;;;8.69;100.00
14594;BME280;7383;52.354;9.756;2023-02-02T16:23:31;-12606.53;;;8.67;100.00
14594;BME280;7383;52.354;9.756;2023-02-02T16:25:59;-12606.63;;;8.68;100.00
14594;BME280;7383;52.354;9.756;2023-02-02T16:28:27;-12606.25;;;8.66;100.00
14594;BME280;7383;52.354;9.756;2023-02-02T16:30:58;-12606.34;;;8.66;100.00
14594;BME280;7383;52.354;9.756;2023-02-02T16:33:27;-12605.47;;;8.61;100.00
14594;BME280;7383;52.354;9.756;2023-02-02T16:35:54;-12606.00;;;8.64;100.00
14594;BME280;7383;52.354;9.756;2023-02-02T16:38:23;-12605.81;;;8.63;100.00
14594;BME280;7383;52.354;9.756;2023-02-02T16:41:04;-12606.25;;;8.66;100.00
14594;BME280;7383;52.354;9.756;2023-02-02T16:43:31;-12605.75;;;8.63;100.00
14594;BME280;7383;52.354;9.756;2023-02-02T16:45:59;-12605.75;;;8.63;100.00
14594;BME280;7383;52.354;9.756;2023-02-02T16:48:33;-12605.66;;;8.62;100.00
14594;BME280;7383;52.354;9.756;2023-02-02T16:51:22;-12604.84;;;8.58;100.00
14594;BME280;7383;52.354;9.756;2023-02-02T16:54:10;-12604.78;;;8.57;100.00
14594;BME280;7383;52.354;9.756;2023-02-02T16:56:41;-12603.97;;;8.53;100.00
14594;BME280;7383;52.354;9.756;2023-02-02T16:59:36;-12603.81;;;8.52;100.00
14594;BME280;7383;52.354;9.756;2023-02-02T17:02:18;-12603.72;;;8.51;100.00
14594;BME280;7383;52.354;9.756;2023-02-02T17:04:47;-12602.41;;;8.44;100.00
14594;BME280;7383;52.354;9.756;2023-02-02T17:07:15;-12602.41;;;8.44;100.00
14594;BME280;7383;52.354;9.756;2023-02-02T17:09:43;-12601.88;;;8.40;100.00
14594;BME280;7383;52.354;9.756;2023-02-02T17:12:24;-12601.69;;;8.39;100.00
14594;BME280;7383;52.354;9.756;2023-02-02T17:14:55;-12600.66;;;8.33;100.00
14594;BME280;7383;52.354;9.756;2023-02-02T17:17:24;-12600.13;;;8.30;100.00
14594;BME280;7383;52.354;9.756;2023-02-02T17:19:51;-12599.25;;;8.25;100.00
14594;BME280;7383;52.354;9.756;2023-02-02T17:22:21;-12598.97;;;8.24;100.00
14594;BME280;7383;52.354;9.756;2023-02-02T17:24:49;-12599.41;;;8.26;100.00
14594;BME280;7383;52.354;9.756;2023-02-02T17:27:19;-12598.91;;;8.23;100.00
14594;BME280;7383;52.354;9.756;2023-02-02T17:29:49;-12599.78;;;8.28;100.00
14594;BME280;7383;52.354;9.756;2023-02-02T17:32:15;-12598.47;;;8.21;100.00
14594;BME280;7383;52.354;9.756;2023-02-02T17:34:42;-12598.38;;;8.20;100.00
14594;BME280;7383;52.354;9.756;2023-02-02T17:37:10;-12597.84;;;8.17;100.00
14594;BME280;7383;52.354;9.756;2023-02-02T17:39:39;-12597.75;;;8.17;100.00
14594;BME280;7383;52.354;9.756;2023-02-02T17:42:18;-12598.38;;;8.20;100.00
14594;BME280;7383;52.354;9.756;2023-02-02T17:44:46;-12597.50;;;8.15;100.00
14594;BME280;7383;52.354;9.756;2023-02-02T17:47:14;-12597.66;;;8.16;100.00
14594;BME280;7383;52.354;9.756;2023-02-02T17:49:40;-12597.16;;;8.13;100.00
14594;BME280;7383;52.354;9.756;2023-02-02T17:52:08;-12597.66;;;8.16;100.00
14594;BME280;7383;52.354;9.756;2023-02-02T17:54:35;-12597.41;;;8.15;100.00
14594;BME280;7383;52.354;9.756;2023-02-02T17:57:02;-12597.84;;;8.17;100.00
14594;BME280;7383;52.354;9.756;2023-02-02T17:59:29;-12597.41;;;8.15;100.00
14594;BME280;7383;52.354;9.756;2023-02-02T18:01:56;-12597.16;;;8.13;100.00
14594;BME280;7383;52.354;9.756;2023-02-02T18:04:24;-12596.78;;;8.11;100.00
14594;BME280;7383;52.354;9.756;2023-02-02T18:06:51;-12597.06;;;8.13;100.00
14594;BME280;7383;52.354;9.756;2023-02-02T18:09:17;-12597.06;;;8.13;100.00
14594;BME280;7383;52.354;9.756;2023-02-02T18:11:45;-12597.16;;;8.13;100.00
14594;BME280;7383;52.354;9.756;2023-02-02T18:14:13;-12597.16;;;8.13;100.00
14594;BME280;7383;52.354;9.756;2023-02-02T18:16:40;-12596.44;;;8.09;100.00
14594;BME280;7383;52.354;9.756;2023-02-02T18:19:07;-12597.06;;;8.13;100.00
14594;BME280;7383;52.354;9.756;2023-02-02T18:21:35;-12595.81;;;8.06;100.00
14594;BME280;7383;52.354;9.756;2023-02-02T18:24:02;-12595.31;;;8.03;100.00
14594;BME280;7383;52.354;9.756;2023-02-02T18:26:29;-12594.44;;;7.98;100.00
14594;BME280;7383;52.354;9.756;2023-02-02T18:28:56;-12592.66;;;7.87;100.00
14594;BME280;7383;52.354;9.756;2023-02-02T18:31:24;-12591.63;;;7.81;100.00
14594;BME280;7383;52.354;9.756;2023-02-02T18:33:52;-12590.66;;;7.76;100.00
14594;BME280;7383;52.354;9.756;2023-02-02T18:36:20;-12591.09;;;7.78;100.00
14594;BME280;7383;52.354;9.756;2023-02-02T18:38:49;-12591.09;;;7.78;100.00
14594;BME280;7383;52.354;9.756;2023-02-02T18:41:18;-12590.75;;;7.76;100.00
14594;BME280;7383;52.354;9.756;2023-02-02T18:43:45;-12590.91;;;7.77;100.00
14594;BME280;7383;52.354;9.756;2023-02-02T18:46:14;-12589.50;;;7.69;100.00
14594;BME280;7383;52.354;9.756;2023-02-02T18:48:42;-12589.69;;;7.70;100.00
14594;BME280;7383;52.354;9.756;2023-02-02T18:51:11;-12589.44;;;7.69;100.00
14594;BME280;7383;52.354;9.756;2023-02-02T18:53:40;-12589.06;;;7.67;100.00
14594;BME280;7383;52.354;9.756;2023-02-02T18:56:08;-12589.44;;;7.69;100.00
14594;BME280;7383;52.354;9.756;2023-02-02T18:58:36;-12590.03;;;7.72;100.00
14594;BME280;7383;52.354;9.756;2023-02-02T19:01:07;-12590.47;;;7.75;100.00
14594;BME280;7383;52.354;9.756;2023-02-02T19:03:34;-12589.94;;;7.72;100.00
14594;BME280;7383;52.354;9.756;2023-02-02T19:06:00;-12588.53;;;7.64;100.00
14594;BME280;7383;52.354;9.756;2023-02-02T19:08:44;-12587.84;;;7.60;100.00
14594;BME280;7383;52.354;9.756;2023-02-02T19:11:15;-12587.41;;;7.57;100.00
14594;BME280;7383;52.354;9.756;2023-02-02T19:13:43;-12586.63;;;7.53;100.00
14594;BME280;7383;52.354;9.756;2023-02-02T19:16:15;-12587.06;;;7.55;100.00
14594;BME280;7383;52.354;9.756;2023-02-02T19:18:42;-12586.97;;;7.55;100.00
14594;BME280;7383;52.354;9.756;2023-02-02T19:21:12;-12587.22;;;7.56;100.00
14594;BME280;7383;52.354;9.756;2023-02-02T19:23:41;-12586.63;;;7.53;100.00
14594;BME280;7383;52.354;9.756;2023-02-02T19:26:22;-12587.94;;;7.60;100.00
14594;BME280;7383;52.354;9.756;2023-02-02T19:29:06;-12588.19;;;7.62;100.00
14594;BME280;7383;52.354;9.756;2023-02-02T19:32:21;-12587.22;;;7.56;100.00
14594;BME280;7383;52.354;9.756;2023-02-02T19:38:19;-12585.66;;;7.47;100.00
14594;BME280;7383;52.354;9.756;2023-02-02T19:40:49;-12585.75;;;7.48;100.00
14594;BME280;7383;52.354;9.756;2023-02-02T19:43:28;-12584.94;;;7.43;100.00
14594;BME280;7383;52.354;9.756;2023-02-02T19:46:18;-12584.78;;;7.42;100.00
14594;BME280;7383;52.354;9.756;2023-02-02T19:48:45;-12584.50;;;7.40;100.00
14594;BME280;7383;52.354;9.756;2023-02-02T19:51:39;-12584.34;;;7.39;100.00
14594;BME280;7383;52.354;9.756;2023-02-02T19:54:28;-12584.00;;;7.37;100.00
14594;BME280;7383;52.354;9.756;2023-02-02T19:56:58;-12583.63;;;7.35;100.00
14594;BME280;7383;52.354;9.756;2023-02-02T19:59:31;-12583.28;;;7.33;100.00
14594;BME280;7383;52.354;9.756;2023-02-02T20:02:16;-12582.31;;;7.28;100.00
14594;BME280;7383;52.354;9.756;2023-02-02T20:04:45;-12581.88;;;7.25;100.00
14594;BME280;7383;52.354;9.756;2023-02-02T20:07:13;-12581.34;;;7.22;100.00
14594;BME280;7383;52.354;9.756;2023-02-02T20:09:40;-12580.56;;;7.18;100.00
14594;BME280;7383;52.354;9.756;2023-02-02T20:12:17;-12580.75;;;7.19;100.00
14594;BME280;7383;52.354;9.756;2023-02-02T20:14:48;-12579.25;;;7.10;100.00